sensor_id;sensor_type;location;lat;lon;timestamp;temperature;humidity
54846;DHT22;53889;50.084;8.646;2022-08-01T00:01:44;24.50;79.40
54846;DHT22;53889;50.084;8.646;2022-08-01T00:04:11;24.40;79.80
54846;DHT22;53889;50.084;8.646;2022-08-01T00:06:39;24.30;80.00
54846;DHT22;53889;50.084;8.646;2022-08-01T00:09:06;25.60;81.00
54846;DHT22;53889;50.084;8.646;2022-08-01T00:11:33;24.30;80.30
54846;DHT22;53889;50.084;8.646;2022-08-01T00:13:59;24.30;80.60
54846;DHT22;53889;50.084;8.646;2022-08-01T00:16:26;24.20;81.00
54846;DHT22;53889;50.084;8.646;2022-08-01T00:18:53;24.10;81.30
54846;DHT22;53889;50.084;8.646;2022-08-01T00:21:20;24.10;81.50
54846;DHT22;53889;50.084;8.646;2022-08-01T00:23:49;24.00;81.90
54846;DHT22;53889;50.084;8.646;2022-08-01T00:26:15;24.00;82.20
54846;DHT22;53889;50.084;8.646;2022-08-01T00:28:42;23.90;82.40
54846;DHT22;53889;50.084;8.646;2022-08-01T00:31:09;23.90;83.00
54846;DHT22;53889;50.084;8.646;2022-08-01T00:33:35;23.80;83.20
54846;DHT22;53889;50.084;8.646;2022-08-01T00:36:02;23.80;83.60
54846;DHT22;53889;50.084;8.646;2022-08-01T00:38:29;23.70;84.00
54846;DHT22;53889;50.084;8.646;2022-08-01T00:40:57;23.70;84.20
54846;DHT22;53889;50.084;8.646;2022-08-01T00:43:24;23.60;84.70
54846;DHT22;53889;50.084;8.646;2022-08-01T00:45:50;23.70;84.70
54846;DHT22;53889;50.084;8.646;2022-08-01T00:48:17;23.60;84.80
54846;DHT22;53889;50.084;8.646;2022-08-01T00:50:44;23.60;85.00
54846;DHT22;53889;50.084;8.646;2022-08-01T00:53:10;23.60;85.50
54846;DHT22;53889;50.084;8.646;2022-08-01T00:55:37;23.50;85.80
54846;DHT22;53889;50.084;8.646;2022-08-01T00:58:05;23.50;86.00
54846;DHT22;53889;50.084;8.646;2022-08-01T01:00:34;23.60;86.10
54846;DHT22;53889;50.084;8.646;2022-08-01T01:03:00;23.50;86.40
54846;DHT22;53889;50.084;8.646;2022-08-01T01:05:27;23.50;86.50
54846;DHT22;53889;50.084;8.646;2022-08-01T01:07:59;23.50;86.80
54846;DHT22;53889;50.084;8.646;2022-08-01T01:10:32;23.90;87.10
54846;DHT22;53889;50.084;8.646;2022-08-01T01:13:07;23.50;87.20
54846;DHT22;53889;50.084;8.646;2022-08-01T01:15:40;23.50;87.20
54846;DHT22;53889;50.084;8.646;2022-08-01T01:18:11;23.50;87.60
54846;DHT22;53889;50.084;8.646;2022-08-01T01:20:41;23.40;87.90
54846;DHT22;53889;50.084;8.646;2022-08-01T01:23:34;23.40;88.50
54846;DHT22;53889;50.084;8.646;2022-08-01T01:26:17;23.40;88.80
54846;DHT22;53889;50.084;8.646;2022-08-01T01:28:59;23.40;89.20
54846;DHT22;53889;50.084;8.646;2022-08-01T01:31:28;23.50;89.00
54846;DHT22;53889;50.084;8.646;2022-08-01T01:33:58;23.60;89.10
54846;DHT22;53889;50.084;8.646;2022-08-01T01:36:26;23.60;89.30
54846;DHT22;53889;50.084;8.646;2022-08-01T01:38:54;23.50;89.70
54846;DHT22;53889;50.084;8.646;2022-08-01T01:41:22;23.40;90.00
54846;DHT22;53889;50.084;8.646;2022-08-01T01:43:50;23.40;90.00
54846;DHT22;53889;50.084;8.646;2022-08-01T01:46:23;23.40;89.80
54846;DHT22;53889;50.084;8.646;2022-08-01T01:48:54;23.40;90.10
54846;DHT22;53889;50.084;8.646;2022-08-01T01:51:24;23.30;90.80
54846;DHT22;53889;50.084;8.646;2022-08-01T01:53:53;23.10;90.80
54846;DHT22;53889;50.084;8.646;2022-08-01T01:56:21;23.00;91.10
54846;DHT22;53889;50.084;8.646;2022-08-01T01:58:51;23.00;91.60
54846;DHT22;53889;50.084;8.646;2022-08-01T02:01:21;22.90;91.80
54846;DHT22;53889;50.084;8.646;2022-08-01T02:03:50;22.90;92.10
54846;DHT22;53889;50.084;8.646;2022-08-01T02:06:18;22.90;92.20
54846;DHT22;53889;50.084;8.646;2022-08-01T02:08:45;22.90;92.40
54846;DHT22;53889;50.084;8.646;2022-08-01T02:11:13;22.80;92.60
54846;DHT22;53889;50.084;8.646;2022-08-01T02:13:50;22.70;93.20
54846;DHT22;53889;50.084;8.646;2022-08-01T02:16:21;22.70;93.50
54846;DHT22;53889;50.084;8.646;2022-08-01T02:18:49;22.70;93.70
54846;DHT22;53889;50.084;8.646;2022-08-01T02:21:20;22.60;94.20
54846;DHT22;53889;50.084;8.646;2022-08-01T02:23:50;22.60;94.40
54846;DHT22;53889;50.084;8.646;2022-08-01T02:26:18;22.60;94.50
54846;DHT22;53889;50.084;8.646;2022-08-01T02:28:48;22.60;94.70
54846;DHT22;53889;50.084;8.646;2022-08-01T02:31:19;22.70;94.80
54846;DHT22;53889;50.084;8.646;2022-08-01T02:33:52;22.60;95.20
54846;DHT22;53889;50.084;8.646;2022-08-01T02:36:21;22.60;95.30
54846;DHT22;53889;50.084;8.646;2022-08-01T02:38:50;22.70;95.20
54846;DHT22;53889;50.084;8.646;2022-08-01T02:41:20;22.80;95.20
54846;DHT22;53889;50.084;8.646;2022-08-01T02:43:50;22.70;95.40
54846;DHT22;53889;50.084;8.646;2022-08-01T02:46:22;22.70;95.50
54846;DHT22;53889;50.084;8.646;2022-08-01T02:48:53;22.60;95.80
54846;DHT22;53889;50.084;8.646;2022-08-01T02:51:23;22.70;95.90
54846;DHT22;53889;50.084;8.646;2022-08-01T02:53:52;22.70;95.90
54846;DHT22;53889;50.084;8.646;2022-08-01T02:56:21;22.70;96.00
54846;DHT22;53889;50.084;8.646;2022-08-01T02:58:49;22.40;96.40
54846;DHT22;53889;50.084;8.646;2022-08-01T03:01:17;22.50;96.70
54846;DHT22;53889;50.084;8.646;2022-08-01T03:03:45;22.40;96.70
54846;DHT22;53889;50.084;8.646;2022-08-01T03:06:14;22.40;96.90
54846;DHT22;53889;50.084;8.646;2022-08-01T03:08:42;22.40;97.00
54846;DHT22;53889;50.084;8.646;2022-08-01T03:11:10;22.40;97.10
54846;DHT22;53889;50.084;8.646;2022-08-01T03:13:40;22.40;97.20
54846;DHT22;53889;50.084;8.646;2022-08-01T03:16:08;22.30;97.40
54846;DHT22;53889;50.084;8.646;2022-08-01T03:18:37;22.30;97.60
54846;DHT22;53889;50.084;8.646;2022-08-01T03:21:06;22.30;97.50
54846;DHT22;53889;50.084;8.646;2022-08-01T03:23:36;22.20;97.80
54846;DHT22;53889;50.084;8.646;2022-08-01T03:26:04;22.20;98.00
54846;DHT22;53889;50.084;8.646;2022-08-01T03:28:31;22.20;98.10
54846;DHT22;53889;50.084;8.646;2022-08-01T03:30:59;22.10;98.30
54846;DHT22;53889;50.084;8.646;2022-08-01T03:33:26;22.00;98.60
54846;DHT22;53889;50.084;8.646;2022-08-01T03:35:54;22.00;98.80
54846;DHT22;53889;50.084;8.646;2022-08-01T03:38:24;22.00;99.20
54846;DHT22;53889;50.084;8.646;2022-08-01T03:40:55;22.00;99.20
54846;DHT22;53889;50.084;8.646;2022-08-01T03:43:27;21.90;99.30
54846;DHT22;53889;50.084;8.646;2022-08-01T03:46:01;22.00;99.30
54846;DHT22;53889;50.084;8.646;2022-08-01T03:48:31;21.90;99.50
54846;DHT22;53889;50.084;8.646;2022-08-01T03:50:59;21.60;99.50
54846;DHT22;53889;50.084;8.646;2022-08-01T03:53:30;22.00;99.60
54846;DHT22;53889;50.084;8.646;2022-08-01T03:56:00;22.00;99.70
54846;DHT22;53889;50.084;8.646;2022-08-01T03:58:29;22.00;99.70
54846;DHT22;53889;50.084;8.646;2022-08-01T04:00:56;21.90;99.90
54846;DHT22;53889;50.084;8.646;2022-08-01T04:03:24;22.00;99.90
54846;DHT22;53889;50.084;8.646;2022-08-01T04:05:51;21.90;99.90
54846;DHT22;53889;50.084;8.646;2022-08-01T04:08:17;22.00;99.90
54846;DHT22;53889;50.084;8.646;2022-08-01T04:10:44;21.90;99.90
54846;DHT22;53889;50.084;8.646;2022-08-01T04:13:12;22.00;99.90
54846;DHT22;53889;50.084;8.646;2022-08-01T04:15:39;22.00;99.90
54846;DHT22;53889;50.084;8.646;2022-08-01T04:18:06;22.00;99.90
54846;DHT22;53889;50.084;8.646;2022-08-01T04:20:32;22.10;99.90
54846;DHT22;53889;50.084;8.646;2022-08-01T04:22:59;22.00;99.90
54846;DHT22;53889;50.084;8.646;2022-08-01T04:25:29;22.00;99.90
54846;DHT22;53889;50.084;8.646;2022-08-01T04:28:00;21.90;99.90
54846;DHT22;53889;50.084;8.646;2022-08-01T04:30:34;21.90;99.90
54846;DHT22;53889;50.084;8.646;2022-08-01T04:33:04;21.90;99.90
54846;DHT22;53889;50.084;8.646;2022-08-01T04:35:33;21.90;99.90
54846;DHT22;53889;50.084;8.646;2022-08-01T04:38:01;21.90;99.90
54846;DHT22;53889;50.084;8.646;2022-08-01T04:40:29;21.90;99.90
54846;DHT22;53889;50.084;8.646;2022-08-01T04:42:57;22.00;99.90
54846;DHT22;53889;50.084;8.646;2022-08-01T04:45:24;22.00;99.90
54846;DHT22;53889;50.084;8.646;2022-08-01T04:47:52;22.00;99.90
54846;DHT22;53889;50.084;8.646;2022-08-01T04:50:19;22.00;99.90
54846;DHT22;53889;50.084;8.646;2022-08-01T04:52:47;22.00;99.90
54846;DHT22;53889;50.084;8.646;2022-08-01T04:55:14;22.40;99.90
54846;DHT22;53889;50.084;8.646;2022-08-01T04:57:44;22.10;99.90
54846;DHT22;53889;50.084;8.646;2022-08-01T05:00:12;22.10;99.90
54846;DHT22;53889;50.084;8.646;2022-08-01T05:02:39;22.20;99.90
54846;DHT22;53889;50.084;8.646;2022-08-01T05:05:08;22.30;99.90
54846;DHT22;53889;50.084;8.646;2022-08-01T05:07:35;22.40;99.90
54846;DHT22;53889;50.084;8.646;2022-08-01T05:10:03;22.40;99.90
54846;DHT22;53889;50.084;8.646;2022-08-01T05:12:30;22.40;99.90
54846;DHT22;53889;50.084;8.646;2022-08-01T05:14:57;22.30;99.90
54846;DHT22;53889;50.084;8.646;2022-08-01T05:17:24;22.10;99.90
54846;DHT22;53889;50.084;8.646;2022-08-01T05:19:51;22.10;99.90
54846;DHT22;53889;50.084;8.646;2022-08-01T05:22:19;22.20;99.90
54846;DHT22;53889;50.084;8.646;2022-08-01T05:24:46;22.30;99.90
54846;DHT22;53889;50.084;8.646;2022-08-01T05:27:12;22.30;99.90
54846;DHT22;53889;50.084;8.646;2022-08-01T05:29:40;22.30;99.90
54846;DHT22;53889;50.084;8.646;2022-08-01T05:32:07;22.30;99.90
54846;DHT22;53889;50.084;8.646;2022-08-01T05:34:34;22.40;99.90
54846;DHT22;53889;50.084;8.646;2022-08-01T05:37:01;22.30;99.90
54846;DHT22;53889;50.084;8.646;2022-08-01T05:39:29;22.40;99.90
54846;DHT22;53889;50.084;8.646;2022-08-01T05:41:56;22.60;99.90
54846;DHT22;53889;50.084;8.646;2022-08-01T05:44:23;22.50;99.90
54846;DHT22;53889;50.084;8.646;2022-08-01T05:46:50;22.50;99.90
54846;DHT22;53889;50.084;8.646;2022-08-01T05:49:17;22.60;99.90
54846;DHT22;53889;50.084;8.646;2022-08-01T05:51:44;22.60;99.80
54846;DHT22;53889;50.084;8.646;2022-08-01T05:54:10;22.60;99.80
54846;DHT22;53889;50.084;8.646;2022-08-01T05:56:38;22.70;99.70
54846;DHT22;53889;50.084;8.646;2022-08-01T05:59:05;22.80;99.50
54846;DHT22;53889;50.084;8.646;2022-08-01T06:01:32;23.00;99.20
54846;DHT22;53889;50.084;8.646;2022-08-01T06:03:59;23.00;99.20
54846;DHT22;53889;50.084;8.646;2022-08-01T06:06:25;23.00;99.10
54846;DHT22;53889;50.084;8.646;2022-08-01T06:08:52;23.10;98.90
54846;DHT22;53889;50.084;8.646;2022-08-01T06:11:19;23.10;98.90
54846;DHT22;53889;50.084;8.646;2022-08-01T06:13:47;23.40;98.60
54846;DHT22;53889;50.084;8.646;2022-08-01T06:16:13;23.10;98.80
54846;DHT22;53889;50.084;8.646;2022-08-01T06:18:40;24.10;98.90
54846;DHT22;53889;50.084;8.646;2022-08-01T06:21:07;23.30;98.60
54846;DHT22;53889;50.084;8.646;2022-08-01T06:23:33;23.30;98.70
54846;DHT22;53889;50.084;8.646;2022-08-01T06:26:00;23.10;98.80
54846;DHT22;53889;50.084;8.646;2022-08-01T06:28:28;23.30;98.70
54846;DHT22;53889;50.084;8.646;2022-08-01T06:30:56;23.40;98.70
54846;DHT22;53889;50.084;8.646;2022-08-01T06:33:24;23.40;98.50
54846;DHT22;53889;50.084;8.646;2022-08-01T06:35:50;23.40;98.70
54846;DHT22;53889;50.084;8.646;2022-08-01T06:38:17;23.40;98.60
54846;DHT22;53889;50.084;8.646;2022-08-01T06:40:43;23.60;98.50
54846;DHT22;53889;50.084;8.646;2022-08-01T06:43:10;24.00;98.40
54846;DHT22;53889;50.084;8.646;2022-08-01T06:45:38;23.70;98.10
54846;DHT22;53889;50.084;8.646;2022-08-01T06:48:06;23.80;98.10
54846;DHT22;53889;50.084;8.646;2022-08-01T06:50:33;23.90;98.00
54846;DHT22;53889;50.084;8.646;2022-08-01T06:53:01;25.90;98.10
54846;DHT22;53889;50.084;8.646;2022-08-01T06:55:27;24.20;97.50
54846;DHT22;53889;50.084;8.646;2022-08-01T06:57:54;24.60;97.10
54846;DHT22;53889;50.084;8.646;2022-08-01T07:00:22;24.60;96.50
54846;DHT22;53889;50.084;8.646;2022-08-01T07:02:49;24.70;96.40
54846;DHT22;53889;50.084;8.646;2022-08-01T07:05:17;24.80;96.20
54846;DHT22;53889;50.084;8.646;2022-08-01T07:07:44;24.70;96.10
54846;DHT22;53889;50.084;8.646;2022-08-01T07:10:11;24.70;96.30
54846;DHT22;53889;50.084;8.646;2022-08-01T07:12:38;24.90;95.90
54846;DHT22;53889;50.084;8.646;2022-08-01T07:15:07;24.70;96.00
54846;DHT22;53889;50.084;8.646;2022-08-01T07:17:36;24.70;96.10
54846;DHT22;53889;50.084;8.646;2022-08-01T07:20:05;24.60;96.30
54846;DHT22;53889;50.084;8.646;2022-08-01T07:22:33;24.60;96.20
54846;DHT22;53889;50.084;8.646;2022-08-01T07:24:59;24.50;96.40
54846;DHT22;53889;50.084;8.646;2022-08-01T07:27:26;24.80;96.30
54846;DHT22;53889;50.084;8.646;2022-08-01T07:29:53;25.00;95.60
54846;DHT22;53889;50.084;8.646;2022-08-01T07:32:19;25.40;95.40
54846;DHT22;53889;50.084;8.646;2022-08-01T07:34:46;25.30;95.20
54846;DHT22;53889;50.084;8.646;2022-08-01T07:37:13;25.60;94.90
54846;DHT22;53889;50.084;8.646;2022-08-01T07:39:41;25.40;94.90
54846;DHT22;53889;50.084;8.646;2022-08-01T07:42:08;25.50;94.60
54846;DHT22;53889;50.084;8.646;2022-08-01T07:44:35;25.40;94.80
54846;DHT22;53889;50.084;8.646;2022-08-01T07:47:02;25.30;94.70
54846;DHT22;53889;50.084;8.646;2022-08-01T07:49:29;25.80;94.30
54846;DHT22;53889;50.084;8.646;2022-08-01T07:51:56;26.20;93.50
54846;DHT22;53889;50.084;8.646;2022-08-01T07:54:23;26.30;93.40
54846;DHT22;53889;50.084;8.646;2022-08-01T07:56:52;26.30;93.30
54846;DHT22;53889;50.084;8.646;2022-08-01T07:59:19;26.40;93.00
54846;DHT22;53889;50.084;8.646;2022-08-01T08:01:48;26.60;92.40
54846;DHT22;53889;50.084;8.646;2022-08-01T08:04:15;27.40;91.60
54846;DHT22;53889;50.084;8.646;2022-08-01T08:06:41;28.70;89.80
54846;DHT22;53889;50.084;8.646;2022-08-01T08:09:08;29.30;85.90
54846;DHT22;53889;50.084;8.646;2022-08-01T08:11:35;29.30;84.90
54846;DHT22;53889;50.084;8.646;2022-08-01T08:14:03;29.00;84.10
54846;DHT22;53889;50.084;8.646;2022-08-01T08:16:30;28.20;85.90
54846;DHT22;53889;50.084;8.646;2022-08-01T08:18:56;28.10;85.70
54846;DHT22;53889;50.084;8.646;2022-08-01T08:21:23;27.80;86.00
54846;DHT22;53889;50.084;8.646;2022-08-01T08:23:50;27.60;87.20
54846;DHT22;53889;50.084;8.646;2022-08-01T08:26:35;27.30;87.60
54846;DHT22;53889;50.084;8.646;2022-08-01T08:29:04;26.80;88.90
54846;DHT22;53889;50.084;8.646;2022-08-01T08:31:31;26.50;90.20
54846;DHT22;53889;50.084;8.646;2022-08-01T08:33:58;26.20;90.70
54846;DHT22;53889;50.084;8.646;2022-08-01T08:36:25;26.30;90.80
54846;DHT22;53889;50.084;8.646;2022-08-01T08:38:51;26.40;90.70
54846;DHT22;53889;50.084;8.646;2022-08-01T08:41:18;26.20;90.90
54846;DHT22;53889;50.084;8.646;2022-08-01T08:43:45;26.00;91.20
54846;DHT22;53889;50.084;8.646;2022-08-01T08:46:14;26.10;91.30
54846;DHT22;53889;50.084;8.646;2022-08-01T08:48:41;26.10;91.30
54846;DHT22;53889;50.084;8.646;2022-08-01T08:51:08;26.20;91.20
54846;DHT22;53889;50.084;8.646;2022-08-01T08:53:38;26.20;91.40
54846;DHT22;53889;50.084;8.646;2022-08-01T08:56:08;25.90;91.50
54846;DHT22;53889;50.084;8.646;2022-08-01T08:58:36;25.90;91.40
54846;DHT22;53889;50.084;8.646;2022-08-01T09:01:05;25.80;91.50
54846;DHT22;53889;50.084;8.646;2022-08-01T09:03:33;25.90;91.50
54846;DHT22;53889;50.084;8.646;2022-08-01T09:06:00;25.80;91.70
54846;DHT22;53889;50.084;8.646;2022-08-01T09:08:28;25.90;92.00
54846;DHT22;53889;50.084;8.646;2022-08-01T09:10:55;25.30;92.20
54846;DHT22;53889;50.084;8.646;2022-08-01T09:13:21;25.90;92.70
54846;DHT22;53889;50.084;8.646;2022-08-01T09:15:50;25.50;92.30
54846;DHT22;53889;50.084;8.646;2022-08-01T09:18:31;25.70;91.80
54846;DHT22;53889;50.084;8.646;2022-08-01T09:21:15;26.40;90.80
54846;DHT22;53889;50.084;8.646;2022-08-01T09:23:45;26.70;89.30
54846;DHT22;53889;50.084;8.646;2022-08-01T09:26:13;26.60;89.30
54846;DHT22;53889;50.084;8.646;2022-08-01T09:28:41;26.40;89.60
54846;DHT22;53889;50.084;8.646;2022-08-01T09:31:09;26.30;89.90
54846;DHT22;53889;50.084;8.646;2022-08-01T09:33:54;27.10;88.40
54846;DHT22;53889;50.084;8.646;2022-08-01T09:36:24;27.80;86.10
54846;DHT22;53889;50.084;8.646;2022-08-01T09:38:53;28.40;83.70
54846;DHT22;53889;50.084;8.646;2022-08-01T09:41:29;28.80;82.00
54846;DHT22;53889;50.084;8.646;2022-08-01T09:43:57;29.40;79.80
54846;DHT22;53889;50.084;8.646;2022-08-01T09:46:25;29.60;79.20
54846;DHT22;53889;50.084;8.646;2022-08-01T09:48:56;30.00;77.60
54846;DHT22;53889;50.084;8.646;2022-08-01T09:51:33;30.40;76.50
54846;DHT22;53889;50.084;8.646;2022-08-01T09:54:01;30.60;74.30
54846;DHT22;53889;50.084;8.646;2022-08-01T09:56:37;31.70;72.60
54846;DHT22;53889;50.084;8.646;2022-08-01T09:59:04;32.70;68.50
54846;DHT22;53889;50.084;8.646;2022-08-01T10:01:42;32.90;67.80
54846;DHT22;53889;50.084;8.646;2022-08-01T10:04:11;33.40;66.50
54846;DHT22;53889;50.084;8.646;2022-08-01T10:06:41;36.80;67.10
54846;DHT22;53889;50.084;8.646;2022-08-01T10:09:10;34.40;63.40
54846;DHT22;53889;50.084;8.646;2022-08-01T10:11:38;33.30;63.50
54846;DHT22;53889;50.084;8.646;2022-08-01T10:14:06;31.60;65.60
54846;DHT22;53889;50.084;8.646;2022-08-01T10:16:34;30.70;67.00
54846;DHT22;53889;50.084;8.646;2022-08-01T10:19:02;29.70;69.20
54846;DHT22;53889;50.084;8.646;2022-08-01T10:21:32;29.20;70.40
54846;DHT22;53889;50.084;8.646;2022-08-01T10:24:02;29.00;71.40
54846;DHT22;53889;50.084;8.646;2022-08-01T10:26:32;28.50;72.10
54846;DHT22;53889;50.084;8.646;2022-08-01T10:28:59;28.40;73.70
54846;DHT22;53889;50.084;8.646;2022-08-01T10:31:27;29.40;72.90
54846;DHT22;53889;50.084;8.646;2022-08-01T10:33:58;30.40;69.40
54846;DHT22;53889;50.084;8.646;2022-08-01T10:36:25;30.70;68.60
54846;DHT22;53889;50.084;8.646;2022-08-01T10:38:53;31.00;67.90
54846;DHT22;53889;50.084;8.646;2022-08-01T10:41:21;31.70;67.00
54846;DHT22;53889;50.084;8.646;2022-08-01T10:43:48;31.90;65.40
54846;DHT22;53889;50.084;8.646;2022-08-01T10:46:18;32.50;63.60
54846;DHT22;53889;50.084;8.646;2022-08-01T10:48:49;32.60;63.10
54846;DHT22;53889;50.084;8.646;2022-08-01T10:51:17;33.60;61.60
54846;DHT22;53889;50.084;8.646;2022-08-01T10:53:47;33.50;61.30
54846;DHT22;53889;50.084;8.646;2022-08-01T10:56:14;33.20;61.50
54846;DHT22;53889;50.084;8.646;2022-08-01T10:58:46;32.70;61.70
54846;DHT22;53889;50.084;8.646;2022-08-01T11:01:19;32.50;62.70
54846;DHT22;53889;50.084;8.646;2022-08-01T11:04:04;31.00;63.40
54846;DHT22;53889;50.084;8.646;2022-08-01T11:09:27;29.80;65.70
54846;DHT22;53889;50.084;8.646;2022-08-01T11:12:02;29.30;67.90
54846;DHT22;53889;50.084;8.646;2022-08-01T11:14:33;30.00;67.40
54846;DHT22;53889;50.084;8.646;2022-08-01T11:17:30;31.20;65.80
54846;DHT22;53889;50.084;8.646;2022-08-01T11:20:05;31.80;63.80
54846;DHT22;53889;50.084;8.646;2022-08-01T11:22:33;31.40;63.10
54846;DHT22;53889;50.084;8.646;2022-08-01T11:25:21;31.20;64.10
54846;DHT22;53889;50.084;8.646;2022-08-01T11:27:48;31.20;63.20
54846;DHT22;53889;50.084;8.646;2022-08-01T11:30:22;31.30;63.40
54846;DHT22;53889;50.084;8.646;2022-08-01T11:32:52;31.60;61.70
54846;DHT22;53889;50.084;8.646;2022-08-01T11:35:20;31.20;62.60
54846;DHT22;53889;50.084;8.646;2022-08-01T11:37:49;31.30;62.00
54846;DHT22;53889;50.084;8.646;2022-08-01T11:40:18;31.40;62.40
54846;DHT22;53889;50.084;8.646;2022-08-01T11:42:47;32.70;61.20
54846;DHT22;53889;50.084;8.646;2022-08-01T11:45:14;33.70;59.50
54846;DHT22;53889;50.084;8.646;2022-08-01T11:47:46;33.20;58.00
54846;DHT22;53889;50.084;8.646;2022-08-01T11:50:30;33.00;58.50
54846;DHT22;53889;50.084;8.646;2022-08-01T11:52:58;32.60;59.30
54846;DHT22;53889;50.084;8.646;2022-08-01T11:55:26;33.10;57.40
54846;DHT22;53889;50.084;8.646;2022-08-01T11:58:00;32.70;58.30
54846;DHT22;53889;50.084;8.646;2022-08-01T12:00:28;31.50;59.30
54846;DHT22;53889;50.084;8.646;2022-08-01T12:03:00;30.80;60.30
54846;DHT22;53889;50.084;8.646;2022-08-01T12:05:28;30.60;61.20
54846;DHT22;53889;50.084;8.646;2022-08-01T12:07:57;30.90;61.00
54846;DHT22;53889;50.084;8.646;2022-08-01T12:10:25;31.70;59.90
54846;DHT22;53889;50.084;8.646;2022-08-01T12:12:54;32.20;59.80
54846;DHT22;53889;50.084;8.646;2022-08-01T12:15:23;32.90;58.10
54846;DHT22;53889;50.084;8.646;2022-08-01T12:17:55;32.90;57.70
54846;DHT22;53889;50.084;8.646;2022-08-01T12:20:23;32.80;58.20
54846;DHT22;53889;50.084;8.646;2022-08-01T12:22:53;32.40;58.90
54846;DHT22;53889;50.084;8.646;2022-08-01T12:25:20;32.00;60.00
54846;DHT22;53889;50.084;8.646;2022-08-01T12:27:48;32.20;58.80
54846;DHT22;53889;50.084;8.646;2022-08-01T12:30:16;32.30;59.10
54846;DHT22;53889;50.084;8.646;2022-08-01T12:32:46;32.00;59.10
54846;DHT22;53889;50.084;8.646;2022-08-01T12:35:14;32.90;58.30
54846;DHT22;53889;50.084;8.646;2022-08-01T12:37:43;33.00;54.90
54846;DHT22;53889;50.084;8.646;2022-08-01T12:40:13;33.00;55.50
54846;DHT22;53889;50.084;8.646;2022-08-01T12:42:41;32.50;56.10
54846;DHT22;53889;50.084;8.646;2022-08-01T12:45:09;31.80;57.40
54846;DHT22;53889;50.084;8.646;2022-08-01T12:47:37;30.90;58.70
54846;DHT22;53889;50.084;8.646;2022-08-01T12:50:10;30.90;59.20
54846;DHT22;53889;50.084;8.646;2022-08-01T12:52:37;30.70;59.80
54846;DHT22;53889;50.084;8.646;2022-08-01T12:55:12;30.60;59.50
54846;DHT22;53889;50.084;8.646;2022-08-01T12:57:42;30.50;59.40
54846;DHT22;53889;50.084;8.646;2022-08-01T13:00:21;30.50;59.90
54846;DHT22;53889;50.084;8.646;2022-08-01T13:02:48;30.70;59.80
54846;DHT22;53889;50.084;8.646;2022-08-01T13:05:17;30.90;59.30
54846;DHT22;53889;50.084;8.646;2022-08-01T13:07:46;31.10;56.90
54846;DHT22;53889;50.084;8.646;2022-08-01T13:10:14;31.10;57.40
54846;DHT22;53889;50.084;8.646;2022-08-01T13:12:51;30.90;58.40
54846;DHT22;53889;50.084;8.646;2022-08-01T13:15:25;30.70;59.40
54846;DHT22;53889;50.084;8.646;2022-08-01T13:17:52;30.50;60.10
54846;DHT22;53889;50.084;8.646;2022-08-01T13:20:26;30.50;60.50
54846;DHT22;53889;50.084;8.646;2022-08-01T13:22:54;30.50;60.30
54846;DHT22;53889;50.084;8.646;2022-08-01T13:25:21;30.50;60.90
54846;DHT22;53889;50.084;8.646;2022-08-01T13:27:47;30.50;60.30
54846;DHT22;53889;50.084;8.646;2022-08-01T13:30:16;30.60;60.80
54846;DHT22;53889;50.084;8.646;2022-08-01T13:32:44;31.00;60.30
54846;DHT22;53889;50.084;8.646;2022-08-01T13:35:24;30.90;60.10
54846;DHT22;53889;50.084;8.646;2022-08-01T13:37:51;30.50;60.60
54846;DHT22;53889;50.084;8.646;2022-08-01T13:40:24;30.40;61.00
54846;DHT22;53889;50.084;8.646;2022-08-01T13:42:51;30.40;60.90
54846;DHT22;53889;50.084;8.646;2022-08-01T13:45:19;30.80;60.40
54846;DHT22;53889;50.084;8.646;2022-08-01T13:47:45;31.20;58.40
54846;DHT22;53889;50.084;8.646;2022-08-01T13:50:12;31.20;58.80
54846;DHT22;53889;50.084;8.646;2022-08-01T13:52:40;30.70;59.60
54846;DHT22;53889;50.084;8.646;2022-08-01T13:55:07;30.50;59.90
54846;DHT22;53889;50.084;8.646;2022-08-01T13:57:34;30.30;59.80
54846;DHT22;53889;50.084;8.646;2022-08-01T14:00:02;30.20;60.20
54846;DHT22;53889;50.084;8.646;2022-08-01T14:02:37;30.10;60.80
54846;DHT22;53889;50.084;8.646;2022-08-01T14:05:05;29.70;62.60
54846;DHT22;53889;50.084;8.646;2022-08-01T14:07:32;29.50;62.90
54846;DHT22;53889;50.084;8.646;2022-08-01T14:10:00;29.40;63.30
54846;DHT22;53889;50.084;8.646;2022-08-01T14:12:27;29.30;63.50
54846;DHT22;53889;50.084;8.646;2022-08-01T14:14:54;29.50;63.40
54846;DHT22;53889;50.084;8.646;2022-08-01T14:17:21;29.30;63.10
54846;DHT22;53889;50.084;8.646;2022-08-01T14:19:48;30.80;64.70
54846;DHT22;53889;50.084;8.646;2022-08-01T14:22:15;29.00;65.20
54846;DHT22;53889;50.084;8.646;2022-08-01T14:24:41;28.70;67.60
54846;DHT22;53889;50.084;8.646;2022-08-01T14:27:09;28.40;68.80
54846;DHT22;53889;50.084;8.646;2022-08-01T14:29:36;28.50;68.60
54846;DHT22;53889;50.084;8.646;2022-08-01T14:32:03;28.80;67.90
54846;DHT22;53889;50.084;8.646;2022-08-01T14:34:30;29.10;67.20
54846;DHT22;53889;50.084;8.646;2022-08-01T14:36:57;29.30;65.90
54846;DHT22;53889;50.084;8.646;2022-08-01T14:39:24;29.30;65.70
54846;DHT22;53889;50.084;8.646;2022-08-01T14:41:50;29.20;65.70
54846;DHT22;53889;50.084;8.646;2022-08-01T14:44:18;29.30;65.40
54846;DHT22;53889;50.084;8.646;2022-08-01T14:46:45;33.00;68.40
54846;DHT22;53889;50.084;8.646;2022-08-01T14:49:13;29.60;64.20
54846;DHT22;53889;50.084;8.646;2022-08-01T14:51:40;29.70;62.80
54846;DHT22;53889;50.084;8.646;2022-08-01T14:54:06;29.80;61.50
54846;DHT22;53889;50.084;8.646;2022-08-01T14:56:33;29.80;62.20
54846;DHT22;53889;50.084;8.646;2022-08-01T14:59:00;29.90;61.70
54846;DHT22;53889;50.084;8.646;2022-08-01T15:01:28;30.60;62.40
54846;DHT22;53889;50.084;8.646;2022-08-01T15:03:55;29.90;60.60
54846;DHT22;53889;50.084;8.646;2022-08-01T15:06:22;29.80;60.80
54846;DHT22;53889;50.084;8.646;2022-08-01T15:08:49;29.80;60.80
54846;DHT22;53889;50.084;8.646;2022-08-01T15:11:15;29.60;61.10
54846;DHT22;53889;50.084;8.646;2022-08-01T15:13:42;29.80;61.70
54846;DHT22;53889;50.084;8.646;2022-08-01T15:16:09;29.90;62.50
54846;DHT22;53889;50.084;8.646;2022-08-01T15:18:37;30.00;63.00
54846;DHT22;53889;50.084;8.646;2022-08-01T15:21:04;30.00;63.10
54846;DHT22;53889;50.084;8.646;2022-08-01T15:23:31;29.90;63.60
54846;DHT22;53889;50.084;8.646;2022-08-01T15:25:58;30.10;63.80
54846;DHT22;53889;50.084;8.646;2022-08-01T15:28:24;29.90;63.90
54846;DHT22;53889;50.084;8.646;2022-08-01T15:30:52;29.70;64.20
54846;DHT22;53889;50.084;8.646;2022-08-01T15:33:18;29.80;63.80
54846;DHT22;53889;50.084;8.646;2022-08-01T15:35:48;29.60;64.30
54846;DHT22;53889;50.084;8.646;2022-08-01T15:38:14;29.20;65.20
54846;DHT22;53889;50.084;8.646;2022-08-01T15:40:42;28.90;65.90
54846;DHT22;53889;50.084;8.646;2022-08-01T15:43:09;28.90;65.80